Grand Forks Air Force Base
KRDR : now visible

Airfield :











YOU CAN JOIN US ON...

 
LOGIN :

Register | Disclaimer

   EN    FR    IT 

 









Legend :    VFR   Marginal VFR   IFR   Intensive IFR   Very Intensive IFR
Visi :
Ceiling :
>= 8 km
>= 3000ft
5 to 8 km
1000 to 3000 ft
1500m to 5 km
500 to 1000 ft
800 to 1500m
200 to 500 ft
< 800m
< 200 ft
Symbols :   Thunderstorms  Fog  Heavy snow  Heavy precipitations  Wind > 20 kt






- Airport Elevation : 913 ft


KRDR - Grand Forks Air Force Base

CURRENT METAR :
  • 171856Z 19013G21KT 10SM FEW085 29/07 A3001 RMK AO2A SLP163 T02850071 $

EXPIRED METARs :
  • 171756Z 19011G18KT 10SM FEW100 FEW250 28/08 A3002 RMK AO2A SLP167 T02770080 10279 20122 57007 $
  • 171656Z 20010KT 10SM FEW250 27/08 A3004 RMK AO2A SLP175 T02690078 $

TAF TAF KRDR
Valid from the 17 at 18:00 until the 19 at 00:00 UTC


171800Z 1718/1824 19012G18KT 9999 SKC QNH3000INS
BECMG 1802/1803 18009KT 9999 SKC QNH2994INS
BECMG 1810/1811 17010G15KT 9999 BKN040 QNH2995INS
BECMG 1814/1815 18015G25KT 9999 BKN040 QNH2980INS TX29/1721Z TN15/1810Z
KZMP FIR / North America



MET'MAP, your aeronautical weather chart ! - Copyright ORBIFLY December 2007 - Disclaimer

ORBIFLY MET'MAP TEAM :

Programming & Development : Alexandra Zaïnal
Concept & original design : Baudouin d'Aumeries
Assistance for programming : Marc-Olivier Méhu
Technical & hardware support : Manuel Goepfert

Contact : metmap@orbifly.com




SOURCES & CREDITS :

   NOAA       Earth
Advisory